createdAt,value
2023-01-25T00:01:15.300Z,60.22
2023-01-25T00:03:42.430Z,49.40
2023-01-25T00:06:17.110Z,41.42
2023-01-25T00:08:45.793Z,38.97
2023-01-25T00:11:21.053Z,43.03
2023-01-25T00:13:55.455Z,38.70
2023-01-25T00:16:23.213Z,36.92
2023-01-25T00:18:50.257Z,37.22
2023-01-25T00:21:29.070Z,32.70
2023-01-25T00:23:57.467Z,28.40
2023-01-25T00:26:31.138Z,31.08
2023-01-25T00:28:58.248Z,31.98
2023-01-25T00:31:42.180Z,26.60
2023-01-25T00:34:34.070Z,25.92
2023-01-25T00:37:25.638Z,28.50
2023-01-25T00:40:00.312Z,26.98
2023-01-25T00:42:28.094Z,21.20
2023-01-25T00:45:02.068Z,19.63
2023-01-25T00:47:29.568Z,24.25
2023-01-25T00:49:56.867Z,16.95
2023-01-25T00:52:31.100Z,18.42
2023-01-25T00:55:05.514Z,16.95
2023-01-25T00:57:32.878Z,15.98
2023-01-25T01:00:00.698Z,15.93
2023-01-25T01:02:35.130Z,15.63
2023-01-25T01:05:16.615Z,13.40
2023-01-25T01:07:51.151Z,12.80
2023-01-25T01:10:19.699Z,12.07
2023-01-25T01:12:47.005Z,10.40
2023-01-25T01:15:20.118Z,11.30
2023-01-25T01:17:47.077Z,11.25
2023-01-25T01:20:15.207Z,10.32
2023-01-25T01:22:53.473Z,12.13
2023-01-25T01:25:20.632Z,12.52
2023-01-25T01:27:55.110Z,12.32
2023-01-25T01:30:23.838Z,13.20
2023-01-25T01:32:51.985Z,13.57
2023-01-25T01:35:26.553Z,12.85
2023-01-25T01:38:01.188Z,12.57
2023-01-25T01:40:28.809Z,13.02
2023-01-25T01:43:15.342Z,14.60
2023-01-25T01:45:49.409Z,13.43
2023-01-25T01:48:45.063Z,13.43
2023-01-25T01:51:58.242Z,13.02
2023-01-25T01:55:03.170Z,14.05
2023-01-25T01:57:42.506Z,15.52
2023-01-25T02:00:23.161Z,15.50
2023-01-25T02:02:51.296Z,15.77
2023-01-25T02:06:02.829Z,15.90
2023-01-25T02:08:33.085Z,15.98
2023-01-25T02:11:08.647Z,20.38
2023-01-25T02:13:36.312Z,16.83
2023-01-25T02:16:10.125Z,18.05
2023-01-25T02:18:37.134Z,14.98
2023-01-25T02:21:11.112Z,17.13
2023-01-25T02:24:16.250Z,18.73
2023-01-25T02:26:43.336Z,20.98
2023-01-25T02:29:10.314Z,18.30
2023-01-25T02:31:44.201Z,20.08
2023-01-25T02:34:11.303Z,16.80
2023-01-25T02:36:45.172Z,17.25
2023-01-25T02:39:15.075Z,16.60
2023-01-25T02:41:50.066Z,17.63
2023-01-25T02:44:29.194Z,17.23
2023-01-25T02:46:56.209Z,16.88
2023-01-25T02:49:30.145Z,16.15
2023-01-25T02:52:04.118Z,18.92
2023-01-25T02:54:31.206Z,20.88
2023-01-25T02:57:05.176Z,15.70
2023-01-25T02:59:32.216Z,18.50
2023-01-25T03:01:59.247Z,25.30
2023-01-25T03:04:33.114Z,26.90
2023-01-25T03:07:00.127Z,26.13
2023-01-25T03:09:34.233Z,26.50
2023-01-25T03:12:01.393Z,22.17
2023-01-25T03:14:35.124Z,26.15
2023-01-25T03:17:08.164Z,24.20
2023-01-25T03:19:42.163Z,25.02
2023-01-25T03:22:09.289Z,22.17
2023-01-25T03:24:43.238Z,24.50
2023-01-25T03:27:10.225Z,20.30
2023-01-25T03:29:38.047Z,22.70
2023-01-25T03:32:12.201Z,20.85
2023-01-25T03:34:39.266Z,26.83
2023-01-25T03:37:13.276Z,20.10
2023-01-25T03:39:40.908Z,22.42
2023-01-25T03:42:14.112Z,21.25
2023-01-25T03:44:41.221Z,23.02
2023-01-25T03:47:08.332Z,18.38
2023-01-25T03:49:42.233Z,19.27
2023-01-25T03:52:09.255Z,19.15
2023-01-25T03:54:43.168Z,14.98
2023-01-25T03:57:10.302Z,18.83
2023-01-25T03:59:44.169Z,16.33
2023-01-25T04:02:11.322Z,14.30
2023-01-25T04:04:38.310Z,16.00
2023-01-25T04:07:12.156Z,19.83
2023-01-25T04:09:39.230Z,15.88
2023-01-25T04:12:06.501Z,34.72
2023-01-25T04:14:44.751Z,109.10
2023-01-25T04:17:11.959Z,146.85
2023-01-25T04:19:45.144Z,115.30
2023-01-25T04:22:12.271Z,99.97
2023-01-25T04:24:39.339Z,155.18
2023-01-25T04:27:13.196Z,45.45
2023-01-25T04:29:42.013Z,28.15
2023-01-25T04:32:16.305Z,26.80
2023-01-25T04:34:43.456Z,30.75
2023-01-25T04:37:17.307Z,32.38
2023-01-25T04:39:44.385Z,31.33
2023-01-25T04:42:11.364Z,67.00
2023-01-25T04:44:45.183Z,53.90
2023-01-25T04:47:12.249Z,46.72
2023-01-25T04:49:52.216Z,31.20
2023-01-25T04:52:19.623Z,26.88
2023-01-25T04:54:53.239Z,21.65
2023-01-25T04:57:20.405Z,21.17
2023-01-25T04:59:47.391Z,29.52
2023-01-25T05:02:21.249Z,45.13
2023-01-25T05:04:48.340Z,44.05
2023-01-25T05:07:22.304Z,33.67
2023-01-25T05:09:49.322Z,28.25
2023-01-25T05:12:16.383Z,23.63
2023-01-25T05:14:50.211Z,22.88
2023-01-25T05:17:17.168Z,20.40
2023-01-25T05:19:50.236Z,19.83
2023-01-25T05:22:18.339Z,16.92
2023-01-25T05:24:52.192Z,17.52
2023-01-25T05:27:26.227Z,15.85
2023-01-25T05:29:53.409Z,19.73
2023-01-25T05:32:21.973Z,19.45
2023-01-25T05:34:55.244Z,18.17
2023-01-25T05:37:22.358Z,20.42
2023-01-25T05:39:56.264Z,20.63
2023-01-25T05:42:23.293Z,16.63
2023-01-25T05:44:57.184Z,18.70
2023-01-25T05:47:24.158Z,20.42
2023-01-25T05:49:57.250Z,20.85
2023-01-25T05:52:24.250Z,15.88
2023-01-25T05:54:57.248Z,20.95
2023-01-25T05:57:24.354Z,16.50
2023-01-25T05:59:51.461Z,18.48
2023-01-25T06:03:37.868Z,15.10
2023-01-25T06:06:05.181Z,12.13
2023-01-25T06:08:32.501Z,18.98
2023-01-25T06:11:12.883Z,12.95
2023-01-25T06:13:46.850Z,16.75
2023-01-25T06:16:13.953Z,16.27
2023-01-25T06:18:47.876Z,17.08
2023-01-25T06:21:21.804Z,22.25
2023-01-25T06:23:48.906Z,22.40
2023-01-25T06:26:16.074Z,21.13
2023-01-25T06:28:50.685Z,20.60
2023-01-25T06:31:18.854Z,17.17
2023-01-25T06:33:58.856Z,20.70
2023-01-25T06:36:26.821Z,20.63
2023-01-25T06:39:00.825Z,16.73
2023-01-25T06:41:27.832Z,18.25
2023-01-25T06:44:01.807Z,18.20
2023-01-25T06:46:28.853Z,26.15
2023-01-25T06:49:02.785Z,16.83
2023-01-25T06:51:29.863Z,19.38
2023-01-25T06:54:03.877Z,18.58
2023-01-25T06:56:30.852Z,15.25
2023-01-25T06:59:04.797Z,14.93
2023-01-25T07:01:31.748Z,16.80
2023-01-25T07:04:08.058Z,16.90
2023-01-25T07:06:35.124Z,17.85
2023-01-25T07:09:13.859Z,38.20
2023-01-25T07:11:40.958Z,41.03
2023-01-25T07:14:14.812Z,37.85
2023-01-25T07:16:48.863Z,33.35
2023-01-25T07:19:15.738Z,29.50
2023-01-25T07:21:48.853Z,23.92
2023-01-25T07:24:17.662Z,28.73
2023-01-25T07:26:44.754Z,35.38
2023-01-25T07:29:22.864Z,37.13
2023-01-25T07:31:49.897Z,35.28
2023-01-25T07:34:16.890Z,29.77
2023-01-25T07:36:50.864Z,32.83
2023-01-25T07:39:17.880Z,30.45
2023-01-25T07:41:51.838Z,24.05
2023-01-25T07:44:25.875Z,20.80
2023-01-25T07:46:53.922Z,19.40
2023-01-25T07:49:27.851Z,19.45
2023-01-25T07:51:54.935Z,21.58
2023-01-25T07:54:23.730Z,19.25
2023-01-25T07:56:56.797Z,21.90
2023-01-25T07:59:24.700Z,19.00
2023-01-25T08:01:57.823Z,19.10
2023-01-25T08:04:24.864Z,31.00
2023-01-25T08:06:57.845Z,26.38
2023-01-25T08:09:24.862Z,21.42
2023-01-25T08:11:51.965Z,17.73
2023-01-25T08:14:25.894Z,17.38
2023-01-25T08:16:52.847Z,23.38
2023-01-25T08:19:19.907Z,21.40
2023-01-25T08:21:53.851Z,19.65
2023-01-25T08:24:21.121Z,18.67
2023-01-25T08:26:54.857Z,18.63
2023-01-25T08:29:21.871Z,19.10
2023-01-25T08:31:55.894Z,18.95
2023-01-25T08:34:29.856Z,17.70
2023-01-25T08:36:56.875Z,16.95
2023-01-25T08:39:30.837Z,20.85
2023-01-25T08:41:57.912Z,25.20
2023-01-25T08:44:31.816Z,29.67
2023-01-25T08:47:06.181Z,26.27
2023-01-25T08:49:40.119Z,31.77
2023-01-25T08:52:07.377Z,29.45
2023-01-25T08:54:40.973Z,31.40
2023-01-25T08:57:07.891Z,38.63
2023-01-25T08:59:41.894Z,40.15
2023-01-25T09:02:18.933Z,39.60
2023-01-25T09:04:45.940Z,59.58
2023-01-25T09:07:19.939Z,69.72
2023-01-25T09:09:46.994Z,66.00
2023-01-25T09:12:14.020Z,68.15
2023-01-25T09:14:47.882Z,71.97
2023-01-25T09:17:14.872Z,66.47
2023-01-25T09:19:47.933Z,54.40
2023-01-25T09:22:14.867Z,49.22
2023-01-25T09:24:48.965Z,40.15
2023-01-25T09:27:16.023Z,35.45
2023-01-25T09:30:01.334Z,32.70
2023-01-25T09:32:29.255Z,28.23
2023-01-25T09:35:02.842Z,23.55
2023-01-25T09:37:29.810Z,19.02
2023-01-25T09:40:02.942Z,19.98
2023-01-25T09:42:56.818Z,18.92
2023-01-25T09:45:38.941Z,20.10
2023-01-25T09:48:20.928Z,23.45
2023-01-25T09:51:27.002Z,17.70
2023-01-25T09:54:00.944Z,18.95
2023-01-25T09:56:33.596Z,16.30
2023-01-25T09:59:10.943Z,13.73
2023-01-25T10:02:31.315Z,14.90
2023-01-25T10:05:12.894Z,17.00
2023-01-25T10:08:04.090Z,15.25
2023-01-25T10:10:44.946Z,13.77
2023-01-25T10:13:19.885Z,17.55
2023-01-25T10:15:57.414Z,16.45
2023-01-25T10:18:48.919Z,15.75
2023-01-25T10:21:37.966Z,16.75
2023-01-25T10:24:40.702Z,16.35
2023-01-25T10:27:42.916Z,15.40
2023-01-25T10:30:50.962Z,18.30
2023-01-25T10:33:19.721Z,18.60
2023-01-25T10:35:48.576Z,18.23
2023-01-25T10:38:32.947Z,17.27
2023-01-25T10:41:05.362Z,21.75
2023-01-25T10:43:39.056Z,19.00
2023-01-25T10:46:23.717Z,12.80
2023-01-25T10:48:56.971Z,12.43
2023-01-25T10:51:34.170Z,12.32
2023-01-25T11:16:03.981Z,22.02
2023-01-25T11:53:12.967Z,13.43
2023-01-25T11:56:41.166Z,11.20
2023-01-25T11:59:33.824Z,8.52
2023-01-25T12:02:33.037Z,7.50
2023-01-25T12:05:24.633Z,7.38
2023-01-25T12:08:07.177Z,8.80
2023-01-25T12:11:17.132Z,9.30
2023-01-25T12:14:21.457Z,6.45
2023-01-25T12:17:47.358Z,8.45
2023-01-25T12:21:13.389Z,8.05
2023-01-25T12:24:38.912Z,8.63
2023-01-25T12:27:40.035Z,8.98
2023-01-25T12:31:05.098Z,8.38
2023-01-25T12:33:45.729Z,9.73
2023-01-25T12:36:52.060Z,9.40
2023-01-25T12:39:52.129Z,7.43
2023-01-25T12:42:32.970Z,9.00
2023-01-25T12:45:05.938Z,8.63
2023-01-25T12:48:11.021Z,8.77
2023-01-25T12:51:02.948Z,7.65
2023-01-25T12:53:42.543Z,8.48
2023-01-25T12:56:33.467Z,7.85
2023-01-25T12:59:35.018Z,7.38
2023-01-25T13:10:33.182Z,8.75
2023-01-25T13:13:24.730Z,7.57
2023-01-25T13:15:59.001Z,9.05
2023-01-25T13:18:30.531Z,9.20
2023-01-25T13:21:06.042Z,10.25
2023-01-25T13:23:44.224Z,9.95
2023-01-25T13:26:29.961Z,8.93
2023-01-25T13:29:17.017Z,9.85
2023-01-25T13:31:53.321Z,10.18
2023-01-25T13:34:43.189Z,9.40
2023-01-25T13:37:31.078Z,9.98
2023-01-25T13:40:43.084Z,10.10
2023-01-25T13:43:22.962Z,8.75
2023-01-25T13:45:52.524Z,11.15
2023-01-25T13:48:31.505Z,8.32
2023-01-25T13:51:04.395Z,8.98
2023-01-25T13:53:38.059Z,9.05
2023-01-25T13:56:11.970Z,9.70
2023-01-25T13:58:53.068Z,7.50
2023-01-25T14:01:20.632Z,8.02
2023-01-25T14:04:06.058Z,7.78
2023-01-25T14:06:46.086Z,7.43
2023-01-25T14:09:17.900Z,12.63
2023-01-25T14:11:57.079Z,10.13
2023-01-25T14:14:36.467Z,10.43
2023-01-25T14:17:24.153Z,9.05
2023-01-25T14:19:55.170Z,10.15
2023-01-25T14:22:34.081Z,8.88
2023-01-25T14:25:32.020Z,8.07
2023-01-25T14:28:10.032Z,9.48
2023-01-25T14:30:37.156Z,8.93
2023-01-25T14:33:40.022Z,9.30
2023-01-25T14:36:24.364Z,8.98
2023-01-25T14:38:59.051Z,8.60
2023-01-25T14:41:28.994Z,9.38
2023-01-25T14:43:58.363Z,9.35
2023-01-25T14:46:39.090Z,8.05
2023-01-25T14:49:12.204Z,9.48
2023-01-25T14:52:05.114Z,10.80
2023-01-25T14:54:37.448Z,9.95
2023-01-25T14:57:13.069Z,10.77
2023-01-25T14:59:45.264Z,24.00
2023-01-25T15:02:41.221Z,14.30
2023-01-25T15:05:23.188Z,13.15
2023-01-25T15:08:04.043Z,10.07
2023-01-25T15:10:39.095Z,11.45
2023-01-25T15:13:15.576Z,9.82
2023-01-25T15:16:07.016Z,10.15
2023-01-25T15:18:51.609Z,9.80
2023-01-25T15:21:26.047Z,11.38
2023-01-25T15:23:54.017Z,10.60
2023-01-25T15:26:38.079Z,9.25
2023-01-25T15:29:17.063Z,9.85
2023-01-25T15:31:51.090Z,10.63
2023-01-25T15:34:21.148Z,13.52
2023-01-25T15:36:55.106Z,17.17
2023-01-25T15:39:22.246Z,16.67
2023-01-25T15:41:56.191Z,13.75
2023-01-25T15:44:23.290Z,19.35
2023-01-25T15:46:51.171Z,14.35
2023-01-25T15:49:33.106Z,12.75
2023-01-25T15:52:07.105Z,14.13
2023-01-25T15:54:48.586Z,23.33
2023-01-25T15:57:32.173Z,28.30
2023-01-25T16:00:06.115Z,24.17
2023-01-25T16:02:33.059Z,26.00
2023-01-25T16:05:00.130Z,28.83
2023-01-25T16:07:36.189Z,29.00
2023-01-25T16:10:10.431Z,30.75
2023-01-25T16:12:37.747Z,27.10
2023-01-25T16:15:12.149Z,29.85
2023-01-25T16:17:46.155Z,30.52
2023-01-25T16:20:21.034Z,30.35
2023-01-25T16:22:54.104Z,30.40
2023-01-25T16:25:21.245Z,42.00
2023-01-25T16:27:56.081Z,61.60
2023-01-25T16:30:25.032Z,87.53
2023-01-25T16:32:59.044Z,78.78
2023-01-25T16:35:32.075Z,49.50
2023-01-25T16:37:59.084Z,36.38
2023-01-25T16:40:35.103Z,31.10
2023-01-25T16:43:09.175Z,26.63
2023-01-25T16:45:36.215Z,31.60
2023-01-25T16:48:10.058Z,29.92
2023-01-25T16:50:37.106Z,31.42
2023-01-25T16:53:10.091Z,28.20
2023-01-25T16:55:37.828Z,33.50
2023-01-25T16:58:04.799Z,41.42
2023-01-25T17:00:38.101Z,38.15
2023-01-25T17:03:11.180Z,33.78
2023-01-25T17:05:45.095Z,32.97
2023-01-25T17:08:19.113Z,27.33
2023-01-25T17:10:59.143Z,26.45
2023-01-25T17:13:26.183Z,28.23
2023-01-25T17:16:03.187Z,29.52
2023-01-25T17:18:30.173Z,26.95
2023-01-25T17:21:01.903Z,25.17
2023-01-25T17:23:35.143Z,29.48
2023-01-25T17:26:19.106Z,27.55
2023-01-25T17:28:53.168Z,24.85
2023-01-25T17:31:29.127Z,30.55
2023-01-25T17:34:03.131Z,24.65
2023-01-25T17:36:30.096Z,25.73
2023-01-25T17:39:07.153Z,18.63
2023-01-25T17:41:34.393Z,18.38
2023-01-25T17:44:08.169Z,19.92
2023-01-25T17:46:42.138Z,14.70
2023-01-25T17:49:12.415Z,17.83
2023-01-25T17:51:46.199Z,14.13
2023-01-25T17:54:13.334Z,11.82
2023-01-25T17:56:47.217Z,12.13
2023-01-25T17:59:14.316Z,16.10
2023-01-25T18:01:41.866Z,13.98
2023-01-25T18:04:16.204Z,14.90
2023-01-25T18:06:43.319Z,16.60
2023-01-25T18:09:17.152Z,17.58
2023-01-25T18:11:44.200Z,18.75
2023-01-25T18:14:19.184Z,12.30
2023-01-25T18:16:46.126Z,13.40
2023-01-25T18:19:20.185Z,20.15
2023-01-25T18:21:47.159Z,16.35
2023-01-25T18:24:40.151Z,14.60
2023-01-25T18:27:19.355Z,22.50
2023-01-25T18:30:11.320Z,21.48
2023-01-25T18:32:38.376Z,24.10
2023-01-25T18:35:12.561Z,25.02
2023-01-25T18:37:39.893Z,26.05
2023-01-25T18:40:08.013Z,28.25
2023-01-25T18:42:41.216Z,27.98
2023-01-25T18:45:12.040Z,27.13
2023-01-25T18:47:46.154Z,25.25
2023-01-25T18:50:13.372Z,23.42
2023-01-25T18:52:47.220Z,22.38
2023-01-25T18:55:14.187Z,22.42
2023-01-25T18:57:41.204Z,23.15
2023-01-25T19:00:15.189Z,25.10
2023-01-25T19:02:42.203Z,21.13
2023-01-25T19:05:16.246Z,20.73
2023-01-25T19:07:56.114Z,23.60
2023-01-25T19:10:29.190Z,21.63
2023-01-25T19:13:03.146Z,20.38
2023-01-25T19:15:30.195Z,23.80
2023-01-25T19:18:04.294Z,26.10
2023-01-25T19:20:31.367Z,21.33
2023-01-25T19:23:05.224Z,20.70
2023-01-25T19:25:32.209Z,21.38
2023-01-25T19:28:06.193Z,22.02
2023-01-25T19:30:33.254Z,23.58
2023-01-25T19:33:07.266Z,26.75
2023-01-25T19:35:42.273Z,26.00
2023-01-25T19:38:09.432Z,25.27
2023-01-25T19:40:43.218Z,25.20
2023-01-25T19:43:10.287Z,28.70
2023-01-25T19:45:44.235Z,27.98
2023-01-25T19:48:11.216Z,25.98
2023-01-25T19:50:45.289Z,26.40
2023-01-25T19:53:12.447Z,25.48
2023-01-25T19:55:46.253Z,26.02
2023-01-25T19:58:20.211Z,37.65
2023-01-25T20:00:47.273Z,33.03
2023-01-25T20:03:21.251Z,29.50
2023-01-25T20:05:58.189Z,29.50
2023-01-25T20:08:34.256Z,33.58
2023-01-25T20:11:02.879Z,28.27
2023-01-25T20:13:29.930Z,27.63
2023-01-25T20:16:04.273Z,25.90
2023-01-25T20:18:31.935Z,26.48
2023-01-25T20:21:17.246Z,32.65
2023-01-25T20:23:48.098Z,31.85
2023-01-25T20:26:27.178Z,31.92
2023-01-25T20:28:55.175Z,30.77
2023-01-25T20:31:43.260Z,28.02
2023-01-25T20:34:28.277Z,31.05
2023-01-25T20:37:02.354Z,33.33
2023-01-25T20:39:29.495Z,34.67
2023-01-25T20:41:56.491Z,32.35
2023-01-25T20:44:30.254Z,38.00
2023-01-25T20:47:04.193Z,33.55
2023-01-25T20:49:31.192Z,32.88
2023-01-25T20:51:58.229Z,32.00
2023-01-25T20:54:32.232Z,33.03
2023-01-25T20:56:59.249Z,39.00
2023-01-25T20:59:33.188Z,37.20
2023-01-25T21:02:00.345Z,33.45
2023-01-25T21:04:27.378Z,28.45
2023-01-25T21:07:01.214Z,27.92
2023-01-25T21:09:28.384Z,24.92
2023-01-25T21:12:02.198Z,24.95
2023-01-25T21:14:29.221Z,27.25
2023-01-25T21:16:56.342Z,26.42
2023-01-25T21:19:30.253Z,24.42
2023-01-25T21:22:03.435Z,24.17
2023-01-25T21:24:30.567Z,22.63
2023-01-25T21:27:04.246Z,25.15
2023-01-25T21:29:31.541Z,28.33
2023-01-25T21:31:58.735Z,26.75
2023-01-25T21:34:32.249Z,23.75
2023-01-25T21:36:59.723Z,26.58
2023-01-25T21:39:34.246Z,30.90
2023-01-25T21:42:01.452Z,26.55
2023-01-25T21:44:28.498Z,27.63
2023-01-25T21:47:28.999Z,31.50
2023-01-25T21:49:54.186Z,29.80
2023-01-25T21:52:27.263Z,30.25
2023-01-25T21:54:54.256Z,31.52
2023-01-25T21:57:28.243Z,40.03
2023-01-25T21:59:55.334Z,34.13
2023-01-25T22:02:22.450Z,31.35
2023-01-25T22:04:56.224Z,34.13
2023-01-25T22:07:29.292Z,36.70
2023-01-25T22:09:56.334Z,30.67
2023-01-25T22:12:30.315Z,35.67
2023-01-25T22:14:57.474Z,32.90
2023-01-25T22:17:24.687Z,31.27
2023-01-25T22:19:58.361Z,35.20
2023-01-25T22:22:25.498Z,33.88
2023-01-25T22:24:59.289Z,32.97
2023-01-25T22:27:56.332Z,29.23
2023-01-25T22:30:23.531Z,29.20
2023-01-25T22:32:57.303Z,28.42
2023-01-25T22:35:24.308Z,32.03
2023-01-25T22:38:05.279Z,31.38
2023-01-25T22:40:39.309Z,31.13
2023-01-25T22:43:06.416Z,30.17
2023-01-25T22:45:40.471Z,27.52
2023-01-25T22:48:07.485Z,28.23
2023-01-25T22:50:43.269Z,28.20
2023-01-25T22:53:10.272Z,29.10
2023-01-25T22:55:53.396Z,28.50
2023-01-25T22:58:20.529Z,31.73
2023-01-25T23:00:54.352Z,27.98
2023-01-25T23:03:21.469Z,31.08
2023-01-25T23:05:48.619Z,29.38
2023-01-25T23:08:22.368Z,28.15
2023-01-25T23:10:52.407Z,28.08
2023-01-25T23:13:27.465Z,32.50
2023-01-25T23:15:57.294Z,32.70
2023-01-25T23:18:31.282Z,32.35
2023-01-25T23:21:02.553Z,30.00
2023-01-25T23:27:27.267Z,27.40
2023-01-25T23:30:01.337Z,24.70
2023-01-25T23:32:28.976Z,28.77
2023-01-25T23:35:02.426Z,28.67
2023-01-25T23:37:29.525Z,27.40
2023-01-25T23:40:05.388Z,29.25
2023-01-25T23:42:39.507Z,28.67
2023-01-25T23:45:08.489Z,29.95
2023-01-25T23:47:46.382Z,28.90
2023-01-25T23:50:20.390Z,32.38
2023-01-25T23:52:54.408Z,31.30
2023-01-25T23:55:21.483Z,29.40
2023-01-25T23:57:55.372Z,31.15
